Time;durP1;ratioP1;P1;durP2;ratioP2;P2;SDS_P1;SDS_P2;PMS_P1;PMS_P2;Temp;Humidity;BMP_temperature;BMP_pressure;BME280_temperature;BME280_humidity;BME280_pressure;Samples;Min_cycle;Max_cycle;Signal;HPM_P1;HPM_P2
2021/07/11 00:01:05;;;;;;;9.40;6.25;;;;;;;;;;5028560;28;20224;-61
2021/07/11 00:03:30;;;;;;;10.18;7.28;;;;;;;;;;5044989;28;20265;-61
2021/07/11 00:05:56;;;;;;;12.95;7.15;;;;;;;;;;5047708;28;20683;-60
2021/07/11 00:08:21;;;;;;;10.45;7.13;;;;;;;;;;5046123;28;20709;-61
2021/07/11 00:10:46;;;;;;;8.13;7.32;;;;;;;;;;5046845;28;20972;-60
2021/07/11 00:13:12;;;;;;;13.38;7.72;;;;;;;;;;5043353;28;20211;-61
2021/07/11 00:15:37;;;;;;;8.63;7.45;;;;;;;;;;5036876;28;20190;-58
2021/07/11 00:18:03;;;;;;;10.18;6.95;;;;;;;;;;5048097;28;20193;-60
2021/07/11 00:20:28;;;;;;;9.25;6.53;;;;;;;;;;5036181;28;20604;-59
2021/07/11 00:22:55;;;;;;;10.95;6.57;;;;;;;;;;5046748;28;20765;-60
2021/07/11 00:25:21;;;;;;;18.65;5.35;;;;;;;;;;5026939;28;20630;-60
2021/07/11 00:27:47;;;;;;;11.35;5.78;;;;;;;;;;5041053;28;20187;-59
2021/07/11 00:30:14;;;;;;;12.52;5.30;;;;;;;;;;5038717;28;20221;-58
2021/07/11 00:32:40;;;;;;;18.17;5.47;;;;;;;;;;5047610;28;20649;-59
2021/07/11 00:35:06;;;;;;;16.55;6.18;;;;;;;;;;5037817;28;20268;-60
2021/07/11 00:37:31;;;;;;;9.75;5.78;;;;;;;;;;5047274;28;20607;-59
2021/07/11 00:39:57;;;;;;;13.15;6.32;;;;;;;;;;5041469;28;20206;-59
2021/07/11 00:42:22;;;;;;;13.95;6.43;;;;;;;;;;5045085;28;20676;-60
2021/07/11 00:44:47;;;;;;;14.73;7.35;;;;;;;;;;5047429;28;20248;-60
2021/07/11 00:47:13;;;;;;;12.30;6.40;;;;;;;;;;5041397;28;20183;-60
2021/07/11 00:49:43;;;;;;;15.57;6.70;;;;;;;;;;5035497;28;20344;-60
2021/07/11 00:52:12;;;;;;;18.13;7.80;;;;;;;;;;5048629;28;20248;-59
2021/07/11 00:54:37;;;;;;;16.55;8.73;;;;;;;;;;5045211;28;20581;-59
2021/07/11 00:57:03;;;;;;;12.30;7.70;;;;;;;;;;5048081;28;20190;-59
2021/07/11 00:59:29;;;;;;;16.92;9.00;;;;;;;;;;5037323;28;20460;-60
2021/07/11 01:02:19;;;;;;;14.00;7.97;;;;;;;;;;5042797;28;20186;-61
2021/07/11 01:04:52;;;;;;;17.63;7.57;;;;;;;;;;5047407;28;20724;-59
2021/07/11 01:07:26;;;;;;;16.02;7.28;;;;;;;;;;5044205;28;20669;-59
2021/07/11 01:09:53;;;;;;;14.70;7.70;;;;;;;;;;5029858;28;20268;-60
2021/07/11 01:12:25;;;;;;;16.98;7.22;;;;;;;;;;5046201;28;20224;-59
2021/07/11 01:14:51;;;;;;;11.57;7.28;;;;;;;;;;5044887;28;20211;-60
2021/07/11 01:17:22;;;;;;;14.55;7.03;;;;;;;;;;5022109;28;20227;-59
2021/07/11 01:20:03;;;;;;;13.10;8.20;;;;;;;;;;5046742;28;20222;-60
2021/07/11 01:22:35;;;;;;;11.30;7.38;;;;;;;;;;5032251;28;20182;-60
2021/07/11 01:25:04;;;;;;;19.63;7.35;;;;;;;;;;5043187;28;20247;-60
2021/07/11 01:27:30;;;;;;;19.55;6.47;;;;;;;;;;5046092;28;20642;-59
2021/07/11 01:29:57;;;;;;;12.98;5.68;;;;;;;;;;5025444;28;20217;-59
2021/07/11 01:32:24;;;;;;;12.80;6.45;;;;;;;;;;5039173;28;20214;-59
2021/07/11 01:34:50;;;;;;;16.33;6.22;;;;;;;;;;5045809;28;20198;-59
2021/07/11 01:37:16;;;;;;;17.50;5.15;;;;;;;;;;5039775;28;20183;-59
2021/07/11 01:39:42;;;;;;;15.82;5.43;;;;;;;;;;5046899;28;20289;-59
2021/07/11 01:42:08;;;;;;;25.70;6.78;;;;;;;;;;5035279;28;20187;-58
2021/07/11 01:44:36;;;;;;;20.20;6.72;;;;;;;;;;5042599;28;20673;-59
2021/07/11 01:47:02;;;;;;;17.50;6.55;;;;;;;;;;5041783;28;20565;-59
2021/07/11 01:49:29;;;;;;;59.70;10.95;;;;;;;;;;5038072;28;20232;-60
2021/07/11 01:51:54;;;;;;;17.35;6.88;;;;;;;;;;5050601;28;20853;-60
2021/07/11 01:54:20;;;;;;;14.73;8.55;;;;;;;;;;5038369;28;20185;-60
2021/07/11 01:56:45;;;;;;;19.58;8.43;;;;;;;;;;5050604;28;20256;-60
2021/07/11 01:59:10;;;;;;;19.35;8.20;;;;;;;;;;5037477;28;20194;-60
2021/07/11 02:01:35;;;;;;;15.73;8.60;;;;;;;;;;5033804;28;20185;-60
2021/07/11 02:04:01;;;;;;;16.05;7.22;;;;;;;;;;5044409;28;20233;-61
2021/07/11 02:06:27;;;;;;;19.20;8.32;;;;;;;;;;5042147;28;20269;-61
2021/07/11 02:08:52;;;;;;;23.77;9.70;;;;;;;;;;5050864;28;20192;-61
2021/07/11 02:11:18;;;;;;;20.73;9.02;;;;;;;;;;5050178;28;20220;-61
2021/07/11 02:13:50;;;;;;;15.27;7.15;;;;;;;;;;5034068;28;20543;-61
2021/07/11 02:16:35;;;;;;;12.98;6.50;;;;;;;;;;5038098;28;20205;-61
2021/07/11 02:19:02;;;;;;;27.55;7.72;;;;;;;;;;5046824;28;20820;-60
2021/07/11 02:21:28;;;;;;;27.38;7.30;;;;;;;;;;5043113;28;20266;-60
2021/07/11 02:23:54;;;;;;;14.40;8.82;;;;;;;;;;5046073;28;20277;-60
2021/07/11 02:26:21;;;;;;;18.02;8.85;;;;;;;;;;5050923;28;20265;-59
2021/07/11 02:28:49;;;;;;;17.92;8.65;;;;;;;;;;5041082;28;20300;-60
2021/07/11 02:31:15;;;;;;;20.50;7.95;;;;;;;;;;5042086;28;20444;-60
2021/07/11 02:33:43;;;;;;;20.23;6.90;;;;;;;;;;5038978;28;20650;-60
2021/07/11 02:36:19;;;;;;;14.40;7.45;;;;;;;;;;5037563;28;20194;-60
2021/07/11 02:38:49;;;;;;;20.63;6.93;;;;;;;;;;5046759;28;20194;-61
2021/07/11 02:41:17;;;;;;;15.18;6.90;;;;;;;;;;5046331;28;20213;-60
2021/07/11 02:43:45;;;;;;;13.70;6.67;;;;;;;;;;5044135;28;20269;-61
2021/07/11 02:46:13;;;;;;;15.27;7.35;;;;;;;;;;5052645;28;20178;-61
2021/07/11 02:48:42;;;;;;;10.48;7.93;;;;;;;;;;5050945;28;20276;-61
2021/07/11 02:51:09;;;;;;;19.02;6.78;;;;;;;;;;5049365;28;20210;-60
2021/07/11 02:53:35;;;;;;;21.52;9.88;;;;;;;;;;5044536;28;20187;-60
2021/07/11 02:56:01;;;;;;;26.75;10.73;;;;;;;;;;5046814;28;20193;-59
2021/07/11 02:58:30;;;;;;;21.75;7.45;;;;;;;;;;5040586;28;20198;-60
2021/07/11 03:00:55;;;;;;;13.40;6.07;;;;;;;;;;5039952;28;20304;-61
2021/07/11 03:03:21;;;;;;;12.30;7.30;;;;;;;;;;5049011;28;20265;-60
2021/07/11 03:05:47;;;;;;;19.23;7.65;;;;;;;;;;5047560;28;20193;-60
2021/07/11 03:08:12;;;;;;;11.80;8.38;;;;;;;;;;5039888;28;20178;-61
2021/07/11 03:10:39;;;;;;;15.90;5.55;;;;;;;;;;5042461;28;20221;-60
2021/07/11 03:13:05;;;;;;;19.15;6.90;;;;;;;;;;5033340;28;20593;-60
2021/07/11 03:15:32;;;;;;;21.00;8.23;;;;;;;;;;5043242;28;20669;-60
2021/07/11 03:17:59;;;;;;;12.43;5.80;;;;;;;;;;5045474;28;20190;-60
2021/07/11 03:20:25;;;;;;;30.13;6.20;;;;;;;;;;5036194;28;20210;-60
2021/07/11 03:22:54;;;;;;;12.57;6.47;;;;;;;;;;5051504;28;20235;-59
2021/07/11 03:25:20;;;;;;;26.52;6.72;;;;;;;;;;5032523;28;20182;-60
2021/07/11 03:27:47;;;;;;;21.02;8.05;;;;;;;;;;5048350;28;20194;-60
2021/07/11 03:30:18;;;;;;;21.08;6.15;;;;;;;;;;5046023;28;20295;-60
2021/07/11 03:32:49;;;;;;;25.75;5.55;;;;;;;;;;5044480;28;20218;-59
2021/07/11 03:35:16;;;;;;;22.17;5.68;;;;;;;;;;5042925;28;20250;-62
2021/07/11 03:37:44;;;;;;;20.53;7.13;;;;;;;;;;5038735;28;20676;-59
2021/07/11 03:40:12;;;;;;;15.50;6.70;;;;;;;;;;5030407;28;20339;-59
2021/07/11 03:42:40;;;;;;;21.07;8.80;;;;;;;;;;5049603;28;20672;-61
2021/07/11 03:45:06;;;;;;;18.65;7.63;;;;;;;;;;5041950;28;20234;-59
2021/07/11 03:47:36;;;;;;;11.57;6.90;;;;;;;;;;5042059;28;20200;-59
2021/07/11 03:50:03;;;;;;;11.87;6.60;;;;;;;;;;5045953;28;20260;-60
2021/07/11 03:52:30;;;;;;;11.97;6.77;;;;;;;;;;5048516;28;20241;-60
2021/07/11 03:54:58;;;;;;;14.50;7.03;;;;;;;;;;5046839;28;20580;-59
2021/07/11 03:57:27;;;;;;;11.13;5.47;;;;;;;;;;5041395;28;20580;-59
2021/07/11 03:59:53;;;;;;;13.25;6.38;;;;;;;;;;5048218;28;20764;-60
2021/07/11 04:02:19;;;;;;;24.87;6.40;;;;;;;;;;5041360;28;20186;-61
2021/07/11 04:04:46;;;;;;;17.27;6.90;;;;;;;;;;5036709;28;20220;-60
2021/07/11 04:07:13;;;;;;;16.45;6.72;;;;;;;;;;5045686;28;20209;-60
2021/07/11 04:09:41;;;;;;;15.25;6.68;;;;;;;;;;5046416;28;20580;-59
2021/07/11 04:12:09;;;;;;;18.15;6.78;;;;;;;;;;5046423;28;20224;-59
2021/07/11 04:14:35;;;;;;;19.33;7.47;;;;;;;;;;5041585;28;20251;-60
2021/07/11 04:17:05;;;;;;;27.70;6.93;;;;;;;;;;5047929;28;20610;-59
2021/07/11 04:19:36;;;;;;;18.05;8.15;;;;;;;;;;5042746;28;20221;-59
2021/07/11 04:22:03;;;;;;;17.42;6.68;;;;;;;;;;5049064;28;20716;-60
2021/07/11 04:24:29;;;;;;;15.35;6.22;;;;;;;;;;5043799;28;20194;-60
2021/07/11 04:26:55;;;;;;;26.92;6.15;;;;;;;;;;5047279;28;20623;-58
2021/07/11 04:29:21;;;;;;;21.92;5.82;;;;;;;;;;5029435;28;20251;-60
2021/07/11 04:31:47;;;;;;;20.60;6.15;;;;;;;;;;5039788;28;20225;-59
2021/07/11 04:34:27;;;;;;;28.45;7.00;;;;;;;;;;5045826;28;20650;-60
2021/07/11 04:36:55;;;;;;;28.40;7.50;;;;;;;;;;5034855;28;20239;-59
2021/07/11 04:39:21;;;;;;;20.63;8.87;;;;;;;;;;5046219;28;20224;-59
2021/07/11 04:41:46;;;;;;;18.43;8.60;;;;;;;;;;5047205;28;20190;-59
2021/07/11 04:44:12;;;;;;;23.67;10.15;;;;;;;;;;5035895;28;20190;-58
2021/07/11 04:46:38;;;;;;;27.27;10.52;;;;;;;;;;5036762;28;20191;-60
2021/07/11 04:49:04;;;;;;;18.95;11.02;;;;;;;;;;5033866;28;20420;-59
2021/07/11 04:51:30;;;;;;;18.50;10.75;;;;;;;;;;5034109;28;20189;-58
2021/07/11 04:53:56;;;;;;;19.70;10.98;;;;;;;;;;5046888;28;20420;-58
2021/07/11 04:56:21;;;;;;;25.92;11.85;;;;;;;;;;5042508;28;20198;-60
2021/07/11 04:58:46;;;;;;;20.88;11.88;;;;;;;;;;5048602;28;20214;-60
2021/07/11 05:01:12;;;;;;;28.10;13.05;;;;;;;;;;5042272;28;20214;-59
2021/07/11 05:03:37;;;;;;;19.83;13.33;;;;;;;;;;5042694;28;20197;-59
2021/07/11 05:06:02;;;;;;;19.75;13.43;;;;;;;;;;5046880;28;20272;-59
2021/07/11 05:08:27;;;;;;;20.67;13.30;;;;;;;;;;5048280;28;20300;-61
2021/07/11 05:10:53;;;;;;;26.00;13.55;;;;;;;;;;5043552;28;20685;-59
2021/07/11 05:13:18;;;;;;;24.02;13.65;;;;;;;;;;5050526;28;20742;-59
2021/07/11 05:15:43;;;;;;;19.70;13.48;;;;;;;;;;5039405;28;20206;-59
2021/07/11 05:18:09;;;;;;;19.77;13.07;;;;;;;;;;5048371;28;20294;-60
2021/07/11 05:20:34;;;;;;;22.90;14.05;;;;;;;;;;5047539;28;20744;-59
2021/07/11 05:22:59;;;;;;;15.30;13.63;;;;;;;;;;5041386;28;20182;-60
2021/07/11 05:25:25;;;;;;;17.27;12.45;;;;;;;;;;5047279;28;20188;-59
2021/07/11 05:27:50;;;;;;;15.63;12.13;;;;;;;;;;5051041;28;20243;-60
2021/07/11 05:30:16;;;;;;;13.35;11.07;;;;;;;;;;5031078;28;20206;-60
2021/07/11 05:32:42;;;;;;;16.65;12.82;;;;;;;;;;5029875;28;20217;-59
2021/07/11 05:35:08;;;;;;;23.63;14.43;;;;;;;;;;5044133;28;20715;-59
2021/07/11 05:37:33;;;;;;;19.77;14.50;;;;;;;;;;5041594;28;20521;-60
2021/07/11 05:39:59;;;;;;;20.10;14.02;;;;;;;;;;5042390;28;20294;-60
2021/07/11 05:42:24;;;;;;;19.20;14.48;;;;;;;;;;5041536;28;20197;-62
2021/07/11 05:44:49;;;;;;;17.85;13.43;;;;;;;;;;5050139;28;20684;-59
2021/07/11 05:47:15;;;;;;;18.40;13.35;;;;;;;;;;5036222;28;20186;-59
2021/07/11 05:49:40;;;;;;;22.40;14.50;;;;;;;;;;5046669;28;20220;-59
2021/07/11 05:52:06;;;;;;;22.80;14.95;;;;;;;;;;5036322;28;20575;-60
2021/07/11 05:54:31;;;;;;;18.02;15.30;;;;;;;;;;5045343;28;20542;-60
2021/07/11 05:56:56;;;;;;;17.05;15.15;;;;;;;;;;5042363;28;20191;-60
2021/07/11 05:59:22;;;;;;;22.20;15.50;;;;;;;;;;5042795;28;20766;-60
2021/07/11 06:01:47;;;;;;;22.02;15.57;;;;;;;;;;5048349;28;20273;-60
2021/07/11 06:04:12;;;;;;;18.35;15.38;;;;;;;;;;5030512;28;20206;-60
2021/07/11 06:06:38;;;;;;;17.45;14.63;;;;;;;;;;5046651;28;20204;-59
2021/07/11 06:09:03;;;;;;;23.10;15.45;;;;;;;;;;5041821;28;20194;-60
2021/07/11 06:11:28;;;;;;;20.77;15.00;;;;;;;;;;5042444;28;20277;-59
2021/07/11 06:13:54;;;;;;;23.67;14.57;;;;;;;;;;5047376;28;20186;-59
2021/07/11 06:16:19;;;;;;;23.40;16.02;;;;;;;;;;5045207;28;20186;-60
2021/07/11 06:18:44;;;;;;;23.40;15.15;;;;;;;;;;5058045;28;20556;-59
2021/07/11 06:21:09;;;;;;;20.95;16.08;;;;;;;;;;5046751;28;20217;-60
2021/07/11 06:23:36;;;;;;;21.80;15.38;;;;;;;;;;5041198;28;20236;-60
2021/07/11 06:26:02;;;;;;;18.17;15.80;;;;;;;;;;5044781;28;20196;-60
2021/07/11 06:28:27;;;;;;;23.08;16.08;;;;;;;;;;5044449;28;20554;-61
2021/07/11 06:30:53;;;;;;;29.05;16.58;;;;;;;;;;5029424;28;20218;-60
2021/07/11 06:33:19;;;;;;;19.92;15.27;;;;;;;;;;5045378;28;20233;-60
2021/07/11 06:35:44;;;;;;;18.70;15.90;;;;;;;;;;5045909;28;20190;-58
2021/07/11 06:38:09;;;;;;;19.80;15.80;;;;;;;;;;5037532;28;20253;-60
2021/07/11 06:40:35;;;;;;;20.20;15.32;;;;;;;;;;5031777;28;20213;-60
2021/07/11 06:43:00;;;;;;;19.05;14.75;;;;;;;;;;5029159;28;20193;-61
2021/07/11 06:45:25;;;;;;;20.52;16.35;;;;;;;;;;5043222;28;20187;-60
2021/07/11 06:47:51;;;;;;;19.65;15.77;;;;;;;;;;5036418;28;20594;-60
2021/07/11 06:50:17;;;;;;;18.13;16.17;;;;;;;;;;5039358;28;20209;-59
2021/07/11 06:52:44;;;;;;;20.48;15.85;;;;;;;;;;5032476;28;20659;-60
2021/07/11 06:55:11;;;;;;;18.35;14.95;;;;;;;;;;5048387;28;20178;-58
2021/07/11 06:57:38;;;;;;;19.45;15.48;;;;;;;;;;5044722;28;20183;-60
2021/07/11 07:00:09;;;;;;;19.33;13.73;;;;;;;;;;5044206;28;20210;-61
2021/07/11 07:02:34;;;;;;;17.38;14.35;;;;;;;;;;5042509;28;20185;-60
2021/07/11 07:05:00;;;;;;;18.00;14.77;;;;;;;;;;5048602;28;20776;-60
2021/07/11 07:07:25;;;;;;;19.27;14.52;;;;;;;;;;5048896;28;20847;-60
2021/07/11 07:09:50;;;;;;;21.40;14.13;;;;;;;;;;5048904;28;20293;-59
2021/07/11 07:12:16;;;;;;;18.60;14.43;;;;;;;;;;5046155;28;20260;-59
2021/07/11 07:14:41;;;;;;;16.70;14.63;;;;;;;;;;5044571;28;20678;-61
2021/07/11 07:17:06;;;;;;;15.65;13.95;;;;;;;;;;5047833;28;20190;-60
2021/07/11 07:19:32;;;;;;;15.23;13.68;;;;;;;;;;5029751;28;20209;-59
2021/07/11 07:21:57;;;;;;;15.93;13.13;;;;;;;;;;5046588;28;20214;-59
2021/07/11 07:24:22;;;;;;;21.20;14.23;;;;;;;;;;5047548;28;20187;-60
2021/07/11 07:26:48;;;;;;;17.95;13.68;;;;;;;;;;5049719;28;20735;-61
2021/07/11 07:29:13;;;;;;;16.38;13.98;;;;;;;;;;5049558;28;20218;-60
2021/07/11 07:31:38;;;;;;;15.40;13.77;;;;;;;;;;5046898;28;20240;-60
2021/07/11 07:34:04;;;;;;;15.52;13.93;;;;;;;;;;5047465;28;20194;-60
2021/07/11 07:36:30;;;;;;;15.27;13.60;;;;;;;;;;5047521;28;20185;-60
2021/07/11 07:38:55;;;;;;;16.63;14.00;;;;;;;;;;5031139;28;20749;-60
2021/07/11 07:41:21;;;;;;;14.55;13.10;;;;;;;;;;5046261;28;20300;-59
2021/07/11 07:43:46;;;;;;;16.65;13.75;;;;;;;;;;5046393;28;20545;-59
2021/07/11 07:46:12;;;;;;;15.60;13.10;;;;;;;;;;5031725;28;20208;-60
2021/07/11 07:48:37;;;;;;;14.18;12.80;;;;;;;;;;5047052;28;20186;-58
2021/07/11 07:51:03;;;;;;;14.38;11.60;;;;;;;;;;5048025;28;20210;-60
2021/07/11 07:53:28;;;;;;;11.93;10.73;;;;;;;;;;5044467;28;20768;-61
2021/07/11 07:55:53;;;;;;;11.13;10.02;;;;;;;;;;5046798;28;20190;-61
2021/07/11 07:58:18;;;;;;;11.88;10.77;;;;;;;;;;5047309;28;20196;-59
2021/07/11 08:00:44;;;;;;;11.88;10.73;;;;;;;;;;5041386;28;20205;-61
2021/07/11 08:03:09;;;;;;;12.32;11.13;;;;;;;;;;5034488;28;20186;-60
2021/07/11 08:05:34;;;;;;;11.43;10.43;;;;;;;;;;5048054;28;20189;-59
2021/07/11 08:08:00;;;;;;;11.18;10.18;;;;;;;;;;5048490;28;20193;-59
2021/07/11 08:10:25;;;;;;;11.88;10.77;;;;;;;;;;5046175;28;20240;-59
2021/07/11 08:12:51;;;;;;;11.77;10.77;;;;;;;;;;5046147;28;20206;-60
2021/07/11 08:15:17;;;;;;;11.52;10.50;;;;;;;;;;5048090;28;20193;-59
2021/07/11 08:17:47;;;;;;;11.63;10.73;;;;;;;;;;5048247;28;20718;-59
2021/07/11 08:20:15;;;;;;;11.23;10.23;;;;;;;;;;5047120;28;20220;-61
2021/07/11 08:22:40;;;;;;;11.35;10.20;;;;;;;;;;5048611;28;20185;-60
2021/07/11 08:25:10;;;;;;;12.70;11.18;;;;;;;;;;5044108;28;20189;-61
2021/07/11 08:27:37;;;;;;;12.45;11.32;;;;;;;;;;5046573;28;20189;-60
2021/07/11 08:30:05;;;;;;;12.57;11.55;;;;;;;;;;5045616;28;20915;-60
2021/07/11 08:32:30;;;;;;;12.10;10.90;;;;;;;;;;5023426;28;20208;-60
2021/07/11 08:34:56;;;;;;;9.60;8.88;;;;;;;;;;5047332;28;20189;-60
2021/07/11 08:37:21;;;;;;;9.52;8.82;;;;;;;;;;5041893;28;20193;-60
2021/07/11 08:39:46;;;;;;;7.32;6.82;;;;;;;;;;5046624;28;20214;-59
2021/07/11 08:42:12;;;;;;;7.22;6.72;;;;;;;;;;5045056;28;20228;-60
2021/07/11 08:44:37;;;;;;;7.30;6.80;;;;;;;;;;5046028;28;20196;-59
2021/07/11 08:47:03;;;;;;;7.28;6.57;;;;;;;;;;5045432;28;20210;-59
2021/07/11 08:49:28;;;;;;;7.00;6.40;;;;;;;;;;5029517;28;20197;-55
2021/07/11 08:52:00;;;;;;;7.43;5.82;;;;;;;;;;5047422;28;20743;-55
2021/07/11 08:54:26;;;;;;;7.32;5.85;;;;;;;;;;5040245;28;20644;-54
2021/07/11 08:56:59;;;;;;;6.43;5.75;;;;;;;;;;5033165;28;20281;-56
2021/07/11 08:59:28;;;;;;;7.22;6.55;;;;;;;;;;5039884;28;20256;-56
2021/07/11 09:01:55;;;;;;;6.25;5.75;;;;;;;;;;5050772;28;20182;-58
2021/07/11 09:04:20;;;;;;;6.03;5.53;;;;;;;;;;5042184;28;20190;-57
2021/07/11 09:06:55;;;;;;;6.22;5.70;;;;;;;;;;5031316;28;20275;-58
2021/07/11 09:09:31;;;;;;;6.80;6.30;;;;;;;;;;5044540;28;20592;-58
2021/07/11 09:12:05;;;;;;;6.05;5.57;;;;;;;;;;5037262;28;20220;-58
2021/07/11 09:14:39;;;;;;;6.65;6.03;;;;;;;;;;5046258;28;20213;-61
2021/07/11 09:17:06;;;;;;;5.78;5.38;;;;;;;;;;5033398;28;20186;-59
2021/07/11 09:19:34;;;;;;;6.30;5.70;;;;;;;;;;5045610;28;20271;-57
2021/07/11 09:22:08;;;;;;;5.40;4.88;;;;;;;;;;5047619;28;20185;-57
2021/07/11 09:24:35;;;;;;;6.18;5.28;;;;;;;;;;5028400;28;20271;-55
2021/07/11 09:27:10;;;;;;;5.20;4.80;;;;;;;;;;5046352;28;20668;-55
2021/07/11 09:29:37;;;;;;;5.30;4.80;;;;;;;;;;5043687;28;20213;-56
2021/07/11 09:32:03;;;;;;;5.45;5.05;;;;;;;;;;5046851;28;20210;-56
2021/07/11 09:34:30;;;;;;;6.18;4.70;;;;;;;;;;5045980;28;20185;-56
2021/07/11 09:37:03;;;;;;;4.95;4.32;;;;;;;;;;5046996;28;20178;-57
2021/07/11 09:39:28;;;;;;;5.35;4.85;;;;;;;;;;5046228;28;20206;-58
2021/07/11 09:41:54;;;;;;;5.05;4.65;;;;;;;;;;5045545;28;20582;-56
2021/07/11 09:44:20;;;;;;;5.65;4.38;;;;;;;;;;5042279;28;20204;-56
2021/07/11 09:46:45;;;;;;;4.82;4.32;;;;;;;;;;5027905;28;20213;-58
2021/07/11 09:49:18;;;;;;;5.35;4.95;;;;;;;;;;5028132;28;20194;-59
2021/07/11 09:51:44;;;;;;;5.55;5.00;;;;;;;;;;5047341;28;20257;-59
2021/07/11 09:54:14;;;;;;;5.35;4.95;;;;;;;;;;5036736;28;20235;-57
2021/07/11 09:56:42;;;;;;;4.80;4.40;;;;;;;;;;5046769;28;20213;-56
2021/07/11 09:59:10;;;;;;;4.57;4.18;;;;;;;;;;5043044;28;20186;-55
2021/07/11 10:01:38;;;;;;;4.50;4.10;;;;;;;;;;5031061;28;20209;-56
2021/07/11 10:04:04;;;;;;;3.95;3.65;;;;;;;;;;5043804;28;20185;-56
2021/07/11 10:06:31;;;;;;;3.47;2.80;;;;;;;;;;5045185;28;20202;-56
2021/07/11 10:08:57;;;;;;;7.93;3.17;;;;;;;;;;5046586;28;20583;-55
2021/07/11 10:11:23;;;;;;;3.50;3.20;;;;;;;;;;5050071;28;20206;-55
2021/07/11 10:13:49;;;;;;;3.40;3.15;;;;;;;;;;5048316;28;20205;-56
2021/07/11 10:16:15;;;;;;;4.15;3.45;;;;;;;;;;5049626;28;20201;-57
2021/07/11 10:18:43;;;;;;;3.63;3.28;;;;;;;;;;5049940;28;20182;-57
2021/07/11 10:21:10;;;;;;;5.32;3.15;;;;;;;;;;5049166;28;20218;-57
2021/07/11 10:23:38;;;;;;;4.07;3.60;;;;;;;;;;5049328;28;20272;-56
2021/07/11 10:26:14;;;;;;;3.90;3.60;;;;;;;;;;5012628;28;20240;-58
2021/07/11 10:28:43;;;;;;;4.82;3.72;;;;;;;;;;5048506;28;20509;-58
2021/07/11 10:31:24;;;;;;;4.10;3.70;;;;;;;;;;5027044;28;20214;-54
2021/07/11 10:33:51;;;;;;;5.13;3.97;;;;;;;;;;5038191;28;20700;-55
2021/07/11 10:36:27;;;;;;;3.72;3.42;;;;;;;;;;5050308;28;20197;-56
2021/07/11 10:38:54;;;;;;;3.60;3.35;;;;;;;;;;5035705;28;20202;-59
2021/07/11 10:41:31;;;;;;;3.63;3.25;;;;;;;;;;5028512;28;20212;-58
2021/07/11 10:44:07;;;;;;;4.95;3.60;;;;;;;;;;5048221;28;20686;-58
2021/07/11 10:46:38;;;;;;;3.63;3.33;;;;;;;;;;5049756;28;20190;-56
2021/07/11 10:49:21;;;;;;;3.58;3.22;;;;;;;;;;5054443;28;20286;-58
2021/07/11 10:51:52;;;;;;;4.90;3.28;;;;;;;;;;5038453;28;20276;-56
2021/07/11 10:54:28;;;;;;;3.00;2.80;;;;;;;;;;5049641;28;20197;-57
2021/07/11 10:56:58;;;;;;;3.30;3.05;;;;;;;;;;5037368;28;20186;-58
2021/07/11 10:59:25;;;;;;;3.55;3.25;;;;;;;;;;5047956;28;20221;-56
2021/07/11 11:01:51;;;;;;;3.35;3.05;;;;;;;;;;5049818;28;20265;-56
2021/07/11 11:04:16;;;;;;;4.20;3.58;;;;;;;;;;5047588;28;20268;-58
2021/07/11 11:06:42;;;;;;;3.72;3.40;;;;;;;;;;5047414;28;20185;-56
2021/07/11 11:09:07;;;;;;;6.82;3.15;;;;;;;;;;5033615;28;20194;-57
2021/07/11 11:11:32;;;;;;;3.00;2.80;;;;;;;;;;5049916;28;20190;-55
2021/07/11 11:14:05;;;;;;;2.80;2.60;;;;;;;;;;5047613;28;20190;-56
2021/07/11 11:16:45;;;;;;;3.00;2.75;;;;;;;;;;5049559;28;20186;-56
2021/07/11 11:19:14;;;;;;;3.50;3.20;;;;;;;;;;5035706;28;20182;-54
2021/07/11 11:21:40;;;;;;;3.20;2.90;;;;;;;;;;5048502;28;20777;-56
2021/07/11 11:24:05;;;;;;;3.85;3.08;;;;;;;;;;5051397;28;20280;-55
2021/07/11 11:26:30;;;;;;;3.47;3.00;;;;;;;;;;5050153;28;20548;-55
2021/07/11 11:28:58;;;;;;;2.83;2.63;;;;;;;;;;5054525;28;20197;-55
2021/07/11 11:31:28;;;;;;;3.40;3.10;;;;;;;;;;5044455;28;20202;-57
2021/07/11 11:34:07;;;;;;;3.80;3.30;;;;;;;;;;5047760;28;20250;-56
2021/07/11 11:36:40;;;;;;;4.85;3.05;;;;;;;;;;5046847;28;20185;-55
2021/07/11 11:39:12;;;;;;;3.05;2.75;;;;;;;;;;5048086;28;20186;-55
2021/07/11 11:41:39;;;;;;;4.25;2.90;;;;;;;;;;5047823;28;20210;-54
2021/07/11 11:44:10;;;;;;;3.85;2.90;;;;;;;;;;5047411;28;20186;-55
2021/07/11 11:46:37;;;;;;;3.22;2.90;;;;;;;;;;5046788;28;20273;-55
2021/07/11 11:49:07;;;;;;;3.80;3.00;;;;;;;;;;5045691;28;20687;-55
2021/07/11 11:51:34;;;;;;;3.00;2.80;;;;;;;;;;5044185;28;20239;-56
2021/07/11 11:54:00;;;;;;;3.00;2.80;;;;;;;;;;5038247;28;20286;-55
2021/07/11 11:56:25;;;;;;;3.38;2.60;;;;;;;;;;5030680;28;21388;-55
2021/07/11 11:59:02;;;;;;;3.85;2.53;;;;;;;;;;5046566;28;20722;-55
2021/07/11 12:01:30;;;;;;;3.25;2.35;;;;;;;;;;5050861;28;20206;-55
2021/07/11 12:04:07;;;;;;;2.88;2.55;;;;;;;;;;5046189;28;20243;-54
2021/07/11 12:06:32;;;;;;;3.45;2.38;;;;;;;;;;5030420;28;20800;-54
2021/07/11 12:08:59;;;;;;;6.55;2.60;;;;;;;;;;5040828;28;20239;-57
2021/07/11 12:11:24;;;;;;;3.88;2.80;;;;;;;;;;5043129;28;20284;-55
2021/07/11 12:13:49;;;;;;;3.30;2.72;;;;;;;;;;5049023;28;20209;-57
2021/07/11 12:16:18;;;;;;;4.43;2.80;;;;;;;;;;5028935;28;20783;-55
2021/07/11 12:18:48;;;;;;;2.88;2.53;;;;;;;;;;5029537;28;20216;-57
2021/07/11 12:21:25;;;;;;;2.70;2.50;;;;;;;;;;5047206;28;20210;-55
2021/07/11 12:24:10;;;;;;;3.92;2.55;;;;;;;;;;5046458;28;20182;-56
2021/07/11 12:26:38;;;;;;;5.68;2.78;;;;;;;;;;5045442;28;20217;-56
2021/07/11 12:29:04;;;;;;;3.13;2.88;;;;;;;;;;5045255;28;20189;-56
2021/07/11 12:31:30;;;;;;;3.10;2.90;;;;;;;;;;5043737;28;20186;-58
2021/07/11 12:33:58;;;;;;;3.05;2.75;;;;;;;;;;5046246;28;20222;-55
2021/07/11 12:36:24;;;;;;;3.05;2.85;;;;;;;;;;5034998;28;20186;-55
2021/07/11 12:38:50;;;;;;;5.55;2.80;;;;;;;;;;5047585;28;20807;-56
2021/07/11 12:41:15;;;;;;;4.32;3.40;;;;;;;;;;5048616;28;20274;-55
2021/07/11 12:43:53;;;;;;;7.95;3.50;;;;;;;;;;5028132;28;20193;-56
2021/07/11 12:46:25;;;;;;;3.38;3.10;;;;;;;;;;5043431;28;20189;-56
2021/07/11 12:48:53;;;;;;;3.33;3.13;;;;;;;;;;5046792;28;20264;-56
2021/07/11 12:51:18;;;;;;;3.33;3.03;;;;;;;;;;5044338;28;20225;-58
2021/07/11 12:53:49;;;;;;;7.13;3.30;;;;;;;;;;5046197;28;20229;-56
2021/07/11 12:56:16;;;;;;;3.88;3.58;;;;;;;;;;5033447;28;20281;-57
2021/07/11 12:58:45;;;;;;;3.50;3.20;;;;;;;;;;5048783;28;20201;-57
2021/07/11 13:01:12;;;;;;;3.45;3.22;;;;;;;;;;5040618;28;20644;-57
2021/07/11 13:03:37;;;;;;;5.63;3.33;;;;;;;;;;5045581;28;20189;-58
2021/07/11 13:06:03;;;;;;;6.03;2.92;;;;;;;;;;5046231;28;20178;-57
2021/07/11 13:08:28;;;;;;;3.50;3.20;;;;;;;;;;5047198;28;20178;-55
2021/07/11 13:10:54;;;;;;;4.03;3.72;;;;;;;;;;5045165;28;20214;-57
2021/07/11 13:13:19;;;;;;;3.45;3.15;;;;;;;;;;5035187;28;20210;-56
2021/07/11 13:15:45;;;;;;;4.22;3.83;;;;;;;;;;5047536;28;20200;-56
2021/07/11 13:18:13;;;;;;;4.43;3.47;;;;;;;;;;5032369;28;20202;-56
2021/07/11 13:20:42;;;;;;;7.05;3.90;;;;;;;;;;5044479;28;20283;-56
2021/07/11 13:23:08;;;;;;;3.28;3.00;;;;;;;;;;5043662;28;20184;-57
2021/07/11 13:25:34;;;;;;;3.13;2.83;;;;;;;;;;5044445;28;20190;-57
2021/07/11 13:28:00;;;;;;;5.53;2.55;;;;;;;;;;5052860;28;20732;-57
2021/07/11 13:30:26;;;;;;;3.78;2.30;;;;;;;;;;5045267;28;20233;-58
2021/07/11 13:32:55;;;;;;;2.30;2.10;;;;;;;;;;5042983;28;20213;-56
2021/07/11 13:35:22;;;;;;;2.42;2.22;;;;;;;;;;5046354;28;20205;-58
2021/07/11 13:37:47;;;;;;;2.92;2.70;;;;;;;;;;5033741;28;20201;-58
2021/07/11 13:40:14;;;;;;;2.83;2.63;;;;;;;;;;5033950;28;20206;-57
2021/07/11 13:42:40;;;;;;;2.47;2.28;;;;;;;;;;5042783;28;20186;-57
2021/07/11 13:45:10;;;;;;;2.97;2.55;;;;;;;;;;5050317;28;20571;-58
2021/07/11 13:47:36;;;;;;;3.60;3.10;;;;;;;;;;5050295;28;20677;-56
2021/07/11 13:50:04;;;;;;;3.40;3.10;;;;;;;;;;5052248;28;20304;-56
2021/07/11 13:52:30;;;;;;;3.05;2.75;;;;;;;;;;5048311;28;20206;-57
2021/07/11 13:54:55;;;;;;;5.05;3.50;;;;;;;;;;5049031;28;20285;-58
2021/07/11 13:57:20;;;;;;;3.75;3.17;;;;;;;;;;5049583;28;20229;-58
2021/07/11 13:59:45;;;;;;;4.00;3.60;;;;;;;;;;5033116;28;20209;-56
2021/07/11 14:02:11;;;;;;;3.60;3.30;;;;;;;;;;5048983;28;20174;-57
2021/07/11 14:04:36;;;;;;;4.15;3.75;;;;;;;;;;5050553;28;20620;-57
2021/07/11 14:07:02;;;;;;;4.03;3.63;;;;;;;;;;5033591;28;20701;-56
2021/07/11 14:09:27;;;;;;;7.72;3.80;;;;;;;;;;5050113;28;20289;-58
2021/07/11 14:11:52;;;;;;;4.15;3.65;;;;;;;;;;5042392;28;20186;-57
2021/07/11 14:14:18;;;;;;;4.45;3.80;;;;;;;;;;5051171;28;20194;-56
2021/07/11 14:16:43;;;;;;;3.97;2.95;;;;;;;;;;5047458;28;20270;-58
2021/07/11 14:19:08;;;;;;;4.13;3.63;;;;;;;;;;5046008;28;20220;-58
2021/07/11 14:21:34;;;;;;;4.72;3.70;;;;;;;;;;5048434;28;20213;-56
2021/07/11 14:23:59;;;;;;;4.93;3.85;;;;;;;;;;5049999;28;20178;-57
2021/07/11 14:26:24;;;;;;;3.80;3.50;;;;;;;;;;5043069;28;20736;-58
2021/07/11 14:28:50;;;;;;;4.15;2.95;;;;;;;;;;5033328;28;20281;-59
2021/07/11 14:31:16;;;;;;;3.67;3.22;;;;;;;;;;5028412;28;20214;-58